sensor_id;sensor_type;location;lat;lon;timestamp;pressure;altitude;pressure_sealevel;temperature;humidity
81704;BME280;71117;52.352;4.808;2024-03-23T00:55:12;101165.44;;;5.41;100.00
81704;BME280;71117;52.352;4.808;2024-03-23T00:57:37;101165.38;;;5.40;100.00
81704;BME280;71117;52.352;4.808;2024-03-23T01:00:04;101156.47;;;5.36;100.00
81704;BME280;71117;52.352;4.808;2024-03-23T01:02:34;101155.94;;;5.24;100.00
81704;BME280;71117;52.352;4.808;2024-03-23T01:04:59;101153.41;;;5.06;100.00
81704;BME280;71117;52.352;4.808;2024-03-23T01:07:25;101150.78;;;4.87;100.00
81704;BME280;71117;52.352;4.808;2024-03-23T01:09:50;101147.88;;;4.81;100.00
81704;BME280;71117;52.352;4.808;2024-03-23T01:12:17;101134.53;;;4.74;100.00
81704;BME280;71117;52.352;4.808;2024-03-23T01:14:42;101133.91;;;4.61;100.00
81704;BME280;71117;52.352;4.808;2024-03-23T01:17:08;101132.25;;;4.43;100.00
81704;BME280;71117;52.352;4.808;2024-03-23T01:19:33;101130.91;;;4.34;100.00
81704;BME280;71117;52.352;4.808;2024-03-23T01:21:58;101125.41;;;4.47;100.00
81704;BME280;71117;52.352;4.808;2024-03-23T01:24:23;101123.41;;;4.41;100.00
81704;BME280;71117;52.352;4.808;2024-03-23T01:26:49;101123.19;;;4.37;100.00
81704;BME280;71117;52.352;4.808;2024-03-23T01:29:14;101120.16;;;4.28;100.00
81704;BME280;71117;52.352;4.808;2024-03-23T01:31:39;101118.78;;;4.36;100.00
81704;BME280;71117;52.352;4.808;2024-03-23T01:34:05;101121.00;;;4.27;100.00
81704;BME280;71117;52.352;4.808;2024-03-23T01:36:30;101119.47;;;4.32;100.00
81704;BME280;71117;52.352;4.808;2024-03-23T01:38:55;101117.28;;;4.41;100.00
81704;BME280;71117;52.352;4.808;2024-03-23T01:41:20;101118.97;;;4.58;100.00
81704;BME280;71117;52.352;4.808;2024-03-23T01:43:46;101119.41;;;4.67;100.00
81704;BME280;71117;52.352;4.808;2024-03-23T01:46:12;101121.78;;;4.82;100.00
81704;BME280;71117;52.352;4.808;2024-03-23T01:48:38;101124.56;;;4.85;100.00
81704;BME280;71117;52.352;4.808;2024-03-23T01:51:05;101112.31;;;4.84;100.00
81704;BME280;71117;52.352;4.808;2024-03-23T01:53:30;101114.16;;;4.87;100.00
81704;BME280;71117;52.352;4.808;2024-03-23T01:55:56;101109.28;;;4.94;99.99
81704;BME280;71117;52.352;4.808;2024-03-23T01:58:22;101104.44;;;5.03;97.65
81704;BME280;71117;52.352;4.808;2024-03-23T02:00:47;101102.91;;;5.09;97.74
81704;BME280;71117;52.352;4.808;2024-03-23T02:03:26;101098.56;;;5.28;95.53
81704;BME280;71117;52.352;4.808;2024-03-23T02:05:55;101097.19;;;5.38;94.47
81704;BME280;71117;52.352;4.808;2024-03-23T02:08:22;101092.81;;;5.37;94.40
81704;BME280;71117;52.352;4.808;2024-03-23T02:10:51;101095.94;;;5.49;92.51
81704;BME280;71117;52.352;4.808;2024-03-23T02:13:17;101101.19;;;5.70;90.34
81704;BME280;71117;52.352;4.808;2024-03-23T02:15:43;101092.47;;;5.71;90.30
81704;BME280;71117;52.352;4.808;2024-03-23T02:18:09;101092.19;;;5.64;90.23
81704;BME280;71117;52.352;4.808;2024-03-23T02:20:35;101091.53;;;5.48;90.88
81704;BME280;71117;52.352;4.808;2024-03-23T02:23:01;101087.50;;;5.36;92.00
81704;BME280;71117;52.352;4.808;2024-03-23T02:25:27;101090.31;;;5.40;91.36
81704;BME280;71117;52.352;4.808;2024-03-23T02:27:52;101086.53;;;5.54;89.81
81704;BME280;71117;52.352;4.808;2024-03-23T02:30:19;101081.50;;;5.59;89.28
81704;BME280;71117;52.352;4.808;2024-03-23T02:32:45;101078.44;;;5.69;88.46
81704;BME280;71117;52.352;4.808;2024-03-23T02:35:10;101068.66;;;5.65;88.69
81704;BME280;71117;52.352;4.808;2024-03-23T02:37:35;101066.94;;;5.66;88.64
81704;BME280;71117;52.352;4.808;2024-03-23T02:40:01;101057.69;;;5.53;89.53
81704;BME280;71117;52.352;4.808;2024-03-23T02:42:26;101057.22;;;5.42;89.48
81704;BME280;71117;52.352;4.808;2024-03-23T02:44:52;101052.19;;;5.26;90.38
81704;BME280;71117;52.352;4.808;2024-03-23T02:47:17;101056.28;;;5.19;91.44
81704;BME280;71117;52.352;4.808;2024-03-23T02:49:42;101062.41;;;5.20;91.08
81704;BME280;71117;52.352;4.808;2024-03-23T02:52:11;101056.78;;;5.11;91.93
81704;BME280;71117;52.352;4.808;2024-03-23T02:54:36;101057.69;;;5.11;91.55
81704;BME280;71117;52.352;4.808;2024-03-23T02:57:02;101060.34;;;5.13;91.34
81704;BME280;71117;52.352;4.808;2024-03-23T02:59:27;101050.28;;;5.22;90.11
81704;BME280;71117;52.352;4.808;2024-03-23T03:01:52;101052.63;;;5.16;91.50
81704;BME280;71117;52.352;4.808;2024-03-23T03:04:18;101058.88;;;5.19;90.42
81704;BME280;71117;52.352;4.808;2024-03-23T03:06:47;101049.47;;;5.23;90.68
81704;BME280;71117;52.352;4.808;2024-03-23T03:09:12;101049.72;;;5.29;89.70
81704;BME280;71117;52.352;4.808;2024-03-23T03:11:41;101039.00;;;5.23;90.11
81704;BME280;71117;52.352;4.808;2024-03-23T03:14:06;101037.84;;;5.16;90.39
81704;BME280;71117;52.352;4.808;2024-03-23T03:16:33;101038.59;;;5.14;90.15
81704;BME280;71117;52.352;4.808;2024-03-23T03:18:58;101031.31;;;5.07;90.47
81704;BME280;71117;52.352;4.808;2024-03-23T03:21:23;101033.78;;;5.03;91.04
81704;BME280;71117;52.352;4.808;2024-03-23T03:23:49;101033.03;;;5.06;91.28
81704;BME280;71117;52.352;4.808;2024-03-23T03:26:24;101027.28;;;5.15;91.07
81704;BME280;71117;52.352;4.808;2024-03-23T03:28:52;101032.47;;;5.13;90.88
81704;BME280;71117;52.352;4.808;2024-03-23T03:31:18;101035.91;;;5.12;91.02
81704;BME280;71117;52.352;4.808;2024-03-23T03:33:43;101024.59;;;5.13;91.32
81704;BME280;71117;52.352;4.808;2024-03-23T03:36:09;101024.66;;;5.15;90.99
81704;BME280;71117;52.352;4.808;2024-03-23T03:38:34;101024.34;;;5.07;91.05
81704;BME280;71117;52.352;4.808;2024-03-23T03:41:03;101024.97;;;5.01;91.25
81704;BME280;71117;52.352;4.808;2024-03-23T03:43:29;101024.09;;;5.01;90.71
81704;BME280;71117;52.352;4.808;2024-03-23T03:45:57;101021.34;;;4.98;91.55
81704;BME280;71117;52.352;4.808;2024-03-23T03:48:23;101014.25;;;4.95;91.50
81704;BME280;71117;52.352;4.808;2024-03-23T03:50:49;101006.78;;;5.04;91.34
81704;BME280;71117;52.352;4.808;2024-03-23T03:53:14;101008.47;;;5.23;91.09
81704;BME280;71117;52.352;4.808;2024-03-23T03:55:39;101009.56;;;5.28;90.96
81704;BME280;71117;52.352;4.808;2024-03-23T03:58:05;101010.59;;;5.54;89.44
81704;BME280;71117;52.352;4.808;2024-03-23T04:00:30;101006.63;;;5.64;88.62
81704;BME280;71117;52.352;4.808;2024-03-23T04:02:56;101002.28;;;5.65;89.13
81704;BME280;71117;52.352;4.808;2024-03-23T04:05:22;101007.28;;;5.58;89.09
81704;BME280;71117;52.352;4.808;2024-03-23T04:07:48;101007.41;;;5.62;89.02
81704;BME280;71117;52.352;4.808;2024-03-23T04:10:14;101011.03;;;5.65;89.78
81704;BME280;71117;52.352;4.808;2024-03-23T04:12:40;101005.69;;;5.62;89.17
81704;BME280;71117;52.352;4.808;2024-03-23T04:15:06;100995.38;;;5.67;88.95
81704;BME280;71117;52.352;4.808;2024-03-23T04:17:31;101004.72;;;5.82;87.57
81704;BME280;71117;52.352;4.808;2024-03-23T04:19:58;101006.03;;;5.92;86.86
81704;BME280;71117;52.352;4.808;2024-03-23T04:22:24;101004.56;;;6.00;85.93
81704;BME280;71117;52.352;4.808;2024-03-23T04:24:57;100996.84;;;6.03;86.35
81704;BME280;71117;52.352;4.808;2024-03-23T04:27:23;100996.31;;;6.12;85.11
81704;BME280;71117;52.352;4.808;2024-03-23T04:29:52;100993.78;;;6.15;84.96
81704;BME280;71117;52.352;4.808;2024-03-23T04:32:20;100992.06;;;6.16;84.62
81704;BME280;71117;52.352;4.808;2024-03-23T04:34:45;100987.59;;;6.13;84.80
81704;BME280;71117;52.352;4.808;2024-03-23T04:37:11;100992.38;;;6.01;85.32
81704;BME280;71117;52.352;4.808;2024-03-23T04:39:37;100987.72;;;5.94;85.45
81704;BME280;71117;52.352;4.808;2024-03-23T04:42:03;100986.50;;;5.86;86.02
81704;BME280;71117;52.352;4.808;2024-03-23T04:44:29;100980.19;;;5.80;86.43
81704;BME280;71117;52.352;4.808;2024-03-23T04:46:54;100986.28;;;5.79;86.38
81704;BME280;71117;52.352;4.808;2024-03-23T04:49:20;100992.09;;;5.72;86.62
81704;BME280;71117;52.352;4.808;2024-03-23T04:51:45;100986.09;;;5.75;86.94
81704;BME280;71117;52.352;4.808;2024-03-23T04:54:13;100993.25;;;5.79;87.14
81704;BME280;71117;52.352;4.808;2024-03-23T04:56:38;100994.19;;;5.81;87.36
81704;BME280;71117;52.352;4.808;2024-03-23T04:59:05;100986.63;;;5.89;86.63
81704;BME280;71117;52.352;4.808;2024-03-23T05:01:34;100982.56;;;5.95;86.27
81704;BME280;71117;52.352;4.808;2024-03-23T05:03:59;100993.50;;;6.07;85.90
81704;BME280;71117;52.352;4.808;2024-03-23T05:06:25;100982.69;;;6.22;85.36
81704;BME280;71117;52.352;4.808;2024-03-23T05:08:53;100988.47;;;6.36;85.21
81704;BME280;71117;52.352;4.808;2024-03-23T05:11:19;100989.56;;;6.43;84.75
81704;BME280;71117;52.352;4.808;2024-03-23T05:13:45;100998.69;;;6.52;85.03
81704;BME280;71117;52.352;4.808;2024-03-23T05:16:12;100986.66;;;6.59;84.03
81704;BME280;71117;52.352;4.808;2024-03-23T05:18:37;100990.84;;;6.54;83.63
81704;BME280;71117;52.352;4.808;2024-03-23T05:21:03;100988.94;;;6.50;84.40
81704;BME280;71117;52.352;4.808;2024-03-23T05:23:29;100992.16;;;6.41;84.77
81704;BME280;71117;52.352;4.808;2024-03-23T05:25:55;100993.03;;;6.42;84.34
81704;BME280;71117;52.352;4.808;2024-03-23T05:28:21;100990.38;;;6.40;84.36
81704;BME280;71117;52.352;4.808;2024-03-23T05:30:53;100991.09;;;6.36;85.02
81704;BME280;71117;52.352;4.808;2024-03-23T05:33:19;100985.72;;;6.33;84.44
81704;BME280;71117;52.352;4.808;2024-03-23T05:35:45;100987.38;;;6.31;85.02
81704;BME280;71117;52.352;4.808;2024-03-23T05:38:10;100987.03;;;6.22;85.70
81704;BME280;71117;52.352;4.808;2024-03-23T05:40:36;100988.72;;;6.20;85.24
81704;BME280;71117;52.352;4.808;2024-03-23T05:43:03;100984.38;;;6.20;84.96
81704;BME280;71117;52.352;4.808;2024-03-23T05:45:28;100985.03;;;6.15;84.71
81704;BME280;71117;52.352;4.808;2024-03-23T05:47:54;100978.94;;;6.16;84.96
81704;BME280;71117;52.352;4.808;2024-03-23T05:50:22;100990.16;;;6.12;85.84
81704;BME280;71117;52.352;4.808;2024-03-23T05:52:49;100975.38;;;6.14;85.52
81704;BME280;71117;52.352;4.808;2024-03-23T05:55:15;100978.72;;;6.09;85.67
81704;BME280;71117;52.352;4.808;2024-03-23T05:57:40;100982.22;;;6.10;85.52
81704;BME280;71117;52.352;4.808;2024-03-23T06:00:06;100974.28;;;6.07;85.79
81704;BME280;71117;52.352;4.808;2024-03-23T06:02:35;100976.00;;;6.06;85.43
81704;BME280;71117;52.352;4.808;2024-03-23T06:05:01;100970.81;;;6.08;85.07
81704;BME280;71117;52.352;4.808;2024-03-23T06:07:27;100979.66;;;6.12;84.53
81704;BME280;71117;52.352;4.808;2024-03-23T06:09:52;100969.44;;;6.18;84.50
81704;BME280;71117;52.352;4.808;2024-03-23T06:12:18;100982.41;;;6.15;84.97
81704;BME280;71117;52.352;4.808;2024-03-23T06:14:43;100982.47;;;6.16;84.48
81704;BME280;71117;52.352;4.808;2024-03-23T06:17:08;100980.81;;;6.18;84.53
81704;BME280;71117;52.352;4.808;2024-03-23T06:19:33;100987.13;;;6.23;84.16
81704;BME280;71117;52.352;4.808;2024-03-23T06:21:59;100981.13;;;6.27;84.25
81704;BME280;71117;52.352;4.808;2024-03-23T06:24:24;100989.31;;;6.35;84.25
81704;BME280;71117;52.352;4.808;2024-03-23T06:26:50;100982.03;;;6.52;83.67
81704;BME280;71117;52.352;4.808;2024-03-23T06:29:15;100972.28;;;6.73;82.41
81704;BME280;71117;52.352;4.808;2024-03-23T06:31:40;100984.50;;;6.97;81.85
81704;BME280;71117;52.352;4.808;2024-03-23T06:34:06;100985.31;;;6.96;81.91
81704;BME280;71117;52.352;4.808;2024-03-23T06:36:31;100972.31;;;6.99;81.79
81704;BME280;71117;52.352;4.808;2024-03-23T06:38:56;100972.50;;;7.05;81.00
81704;BME280;71117;52.352;4.808;2024-03-23T06:41:22;100963.94;;;7.10;80.88
81704;BME280;71117;52.352;4.808;2024-03-23T06:43:48;100971.66;;;7.06;81.07
81704;BME280;71117;52.352;4.808;2024-03-23T06:46:13;100975.63;;;6.93;81.20
81704;BME280;71117;52.352;4.808;2024-03-23T06:48:38;100977.69;;;7.02;80.43
81704;BME280;71117;52.352;4.808;2024-03-23T06:51:04;100963.25;;;7.16;79.98
81704;BME280;71117;52.352;4.808;2024-03-23T06:53:29;100979.13;;;7.19;79.13
81704;BME280;71117;52.352;4.808;2024-03-23T06:55:54;100975.25;;;7.08;79.60
81704;BME280;71117;52.352;4.808;2024-03-23T06:58:21;100979.25;;;6.97;80.65
81704;BME280;71117;52.352;4.808;2024-03-23T07:00:47;100973.91;;;6.95;81.05
81704;BME280;71117;52.352;4.808;2024-03-23T07:03:12;100985.06;;;6.88;81.34
81704;BME280;71117;52.352;4.808;2024-03-23T07:05:38;100980.75;;;6.90;80.64
81704;BME280;71117;52.352;4.808;2024-03-23T07:08:03;100984.22;;;6.89;79.12
81704;BME280;71117;52.352;4.808;2024-03-23T07:10:29;100978.34;;;6.96;79.68
81704;BME280;71117;52.352;4.808;2024-03-23T07:12:54;100976.50;;;6.94;79.58
81704;BME280;71117;52.352;4.808;2024-03-23T07:15:19;100976.63;;;6.97;79.66
81704;BME280;71117;52.352;4.808;2024-03-23T07:17:47;100968.75;;;7.24;79.35
81704;BME280;71117;52.352;4.808;2024-03-23T07:20:13;100984.47;;;7.49;79.01
81704;BME280;71117;52.352;4.808;2024-03-23T07:22:38;100987.13;;;7.78;77.37
81704;BME280;71117;52.352;4.808;2024-03-23T07:25:05;100980.19;;;7.80;76.74
81704;BME280;71117;52.352;4.808;2024-03-23T07:27:30;100982.28;;;7.63;76.50
81704;BME280;71117;52.352;4.808;2024-03-23T07:29:55;100991.16;;;7.39;76.36
81704;BME280;71117;52.352;4.808;2024-03-23T07:32:21;100971.09;;;7.14;76.42
81704;BME280;71117;52.352;4.808;2024-03-23T07:34:46;100970.88;;;7.08;76.34
81704;BME280;71117;52.352;4.808;2024-03-23T07:37:12;100972.66;;;7.09;77.27
81704;BME280;71117;52.352;4.808;2024-03-23T07:39:37;100973.28;;;7.28;77.31
81704;BME280;71117;52.352;4.808;2024-03-23T07:42:03;100980.72;;;7.41;76.08
81704;BME280;71117;52.352;4.808;2024-03-23T07:44:28;100979.56;;;7.60;75.89
81704;BME280;71117;52.352;4.808;2024-03-23T07:46:53;100982.69;;;7.48;76.17
81704;BME280;71117;52.352;4.808;2024-03-23T07:49:19;100969.53;;;7.47;75.08
81704;BME280;71117;52.352;4.808;2024-03-23T07:51:44;100970.06;;;7.63;75.23
81704;BME280;71117;52.352;4.808;2024-03-23T07:54:10;100970.84;;;7.61;74.58
81704;BME280;71117;52.352;4.808;2024-03-23T07:56:35;100974.53;;;7.67;73.73
81704;BME280;71117;52.352;4.808;2024-03-23T07:59:00;100971.91;;;7.67;73.36
81704;BME280;71117;52.352;4.808;2024-03-23T08:01:28;100980.00;;;7.74;73.31
81704;BME280;71117;52.352;4.808;2024-03-23T08:03:53;100992.06;;;7.40;72.65
81704;BME280;71117;52.352;4.808;2024-03-23T08:06:20;100971.66;;;7.31;72.75
81704;BME280;71117;52.352;4.808;2024-03-23T08:08:48;100970.84;;;7.34;72.38
81704;BME280;71117;52.352;4.808;2024-03-23T08:11:14;100976.63;;;7.51;72.12
81704;BME280;71117;52.352;4.808;2024-03-23T08:13:41;100975.50;;;7.69;70.67
81704;BME280;71117;52.352;4.808;2024-03-23T08:16:07;100961.56;;;8.02;70.09
81704;BME280;71117;52.352;4.808;2024-03-23T08:18:33;100978.16;;;8.30;69.26
81704;BME280;71117;52.352;4.808;2024-03-23T08:21:03;100964.59;;;8.14;69.14
81704;BME280;71117;52.352;4.808;2024-03-23T08:23:30;100975.94;;;7.85;70.77
81704;BME280;71117;52.352;4.808;2024-03-23T08:26:03;100965.44;;;7.85;71.29
81704;BME280;71117;52.352;4.808;2024-03-23T08:28:29;100987.84;;;7.72;71.12
81704;BME280;71117;52.352;4.808;2024-03-23T08:30:55;100972.88;;;7.69;71.52
81704;BME280;71117;52.352;4.808;2024-03-23T08:33:21;100967.53;;;7.96;71.30
81704;BME280;71117;52.352;4.808;2024-03-23T08:36:01;100978.66;;;8.16;70.35
81704;BME280;71117;52.352;4.808;2024-03-23T08:38:27;100956.75;;;8.46;69.20
81704;BME280;71117;52.352;4.808;2024-03-23T08:40:57;100965.25;;;8.69;67.38
81704;BME280;71117;52.352;4.808;2024-03-23T08:43:23;100987.28;;;8.71;66.71
81704;BME280;71117;52.352;4.808;2024-03-23T08:45:48;100976.94;;;8.17;67.66
81704;BME280;71117;52.352;4.808;2024-03-23T08:48:14;100963.00;;;8.19;68.04
81704;BME280;71117;52.352;4.808;2024-03-23T08:50:39;100970.03;;;8.20;68.32
81704;BME280;71117;52.352;4.808;2024-03-23T08:53:04;100970.72;;;8.43;67.65
81704;BME280;71117;52.352;4.808;2024-03-23T08:55:29;100955.66;;;8.38;68.49
81704;BME280;71117;52.352;4.808;2024-03-23T08:57:55;100959.38;;;8.46;69.58
81704;BME280;71117;52.352;4.808;2024-03-23T09:00:21;100953.78;;;8.98;68.46
81704;BME280;71117;52.352;4.808;2024-03-23T09:02:50;100962.91;;;9.13;66.18
81704;BME280;71117;52.352;4.808;2024-03-23T09:05:15;100971.47;;;9.04;65.37
81704;BME280;71117;52.352;4.808;2024-03-23T09:07:40;100959.78;;;8.93;67.12
81704;BME280;71117;52.352;4.808;2024-03-23T09:10:07;100962.19;;;8.85;67.92
81704;BME280;71117;52.352;4.808;2024-03-23T09:12:33;100964.31;;;8.65;70.46
81704;BME280;71117;52.352;4.808;2024-03-23T09:14:58;100960.03;;;8.37;70.44
81704;BME280;71117;52.352;4.808;2024-03-23T09:17:23;100969.75;;;8.11;69.95
81704;BME280;71117;52.352;4.808;2024-03-23T09:19:50;100963.28;;;8.00;70.30
81704;BME280;71117;52.352;4.808;2024-03-23T09:22:15;100964.09;;;7.98;70.25
81704;BME280;71117;52.352;4.808;2024-03-23T09:24:41;100969.81;;;8.43;69.16
81704;BME280;71117;52.352;4.808;2024-03-23T09:27:06;100969.63;;;8.68;67.58
81704;BME280;71117;52.352;4.808;2024-03-23T09:29:31;100976.69;;;8.69;66.56
81704;BME280;71117;52.352;4.808;2024-03-23T09:31:57;100973.44;;;8.80;65.77
81704;BME280;71117;52.352;4.808;2024-03-23T09:34:22;100965.28;;;8.37;67.11
81704;BME280;71117;52.352;4.808;2024-03-23T09:36:51;100961.31;;;8.23;67.94
81704;BME280;71117;52.352;4.808;2024-03-23T09:39:17;100971.66;;;8.47;67.35
81704;BME280;71117;52.352;4.808;2024-03-23T09:41:42;100963.47;;;9.01;65.40
81704;BME280;71117;52.352;4.808;2024-03-23T09:44:08;100946.97;;;9.08;63.62
81704;BME280;71117;52.352;4.808;2024-03-23T09:46:35;100959.31;;;8.43;65.67
81704;BME280;71117;52.352;4.808;2024-03-23T09:49:02;100974.09;;;8.39;66.70
81704;BME280;71117;52.352;4.808;2024-03-23T09:51:30;100972.97;;;8.31;66.10
81704;BME280;71117;52.352;4.808;2024-03-23T09:53:56;100966.50;;;9.16;64.99
81704;BME280;71117;52.352;4.808;2024-03-23T09:56:22;100969.59;;;9.35;63.31
81704;BME280;71117;52.352;4.808;2024-03-23T09:58:49;100971.97;;;8.89;64.51
81704;BME280;71117;52.352;4.808;2024-03-23T10:01:14;100944.63;;;8.53;67.15
81704;BME280;71117;52.352;4.808;2024-03-23T10:03:46;100950.78;;;8.85;67.42
81704;BME280;71117;52.352;4.808;2024-03-23T10:06:12;100945.91;;;9.72;64.24
81704;BME280;71117;52.352;4.808;2024-03-23T10:08:37;100948.13;;;9.93;60.93
81704;BME280;71117;52.352;4.808;2024-03-23T10:11:13;100954.19;;;9.51;61.23
81704;BME280;71117;52.352;4.808;2024-03-23T10:13:42;100962.59;;;9.35;63.42
81704;BME280;71117;52.352;4.808;2024-03-23T10:16:09;100963.31;;;8.93;69.05
81704;BME280;71117;52.352;4.808;2024-03-23T10:18:39;100960.09;;;9.05;71.77
81704;BME280;71117;52.352;4.808;2024-03-23T10:21:09;100960.56;;;9.25;70.83
81704;BME280;71117;52.352;4.808;2024-03-23T10:23:37;100965.34;;;9.05;70.33
81704;BME280;71117;52.352;4.808;2024-03-23T10:28:53;100953.63;;;8.59;69.31
81704;BME280;71117;52.352;4.808;2024-03-23T10:31:18;100951.44;;;8.76;69.17
81704;BME280;71117;52.352;4.808;2024-03-23T10:33:48;100952.88;;;8.98;66.57
81704;BME280;71117;52.352;4.808;2024-03-23T10:36:14;100971.84;;;9.54;65.01
81704;BME280;71117;52.352;4.808;2024-03-23T10:38:41;100967.91;;;9.02;66.45
81704;BME280;71117;52.352;4.808;2024-03-23T10:41:08;100951.00;;;10.46;63.66
81704;BME280;71117;52.352;4.808;2024-03-23T10:43:34;100944.06;;;9.70;62.26
81704;BME280;71117;52.352;4.808;2024-03-23T10:46:01;100955.81;;;9.46;63.20
81704;BME280;71117;52.352;4.808;2024-03-23T10:48:26;100952.78;;;8.95;64.50
81704;BME280;71117;52.352;4.808;2024-03-23T10:50:52;100948.91;;;9.51;63.50
81704;BME280;71117;52.352;4.808;2024-03-23T10:53:18;100947.75;;;11.11;57.12
81704;BME280;71117;52.352;4.808;2024-03-23T10:55:44;100960.94;;;11.08;57.04
81704;BME280;71117;52.352;4.808;2024-03-23T10:58:10;100959.22;;;10.19;60.24
81704;BME280;71117;52.352;4.808;2024-03-23T11:00:38;100950.03;;;9.25;62.63
81704;BME280;71117;52.352;4.808;2024-03-23T11:03:30;100977.63;;;9.05;63.50
81704;BME280;71117;52.352;4.808;2024-03-23T11:05:56;100937.75;;;10.90;60.06
81704;BME280;71117;52.352;4.808;2024-03-23T11:08:38;100919.00;;;11.88;55.42
81704;BME280;71117;52.352;4.808;2024-03-23T11:11:19;100921.75;;;12.69;51.26
81704;BME280;71117;52.352;4.808;2024-03-23T11:13:52;100949.09;;;12.68;50.16
81704;BME280;71117;52.352;4.808;2024-03-23T11:16:28;100960.28;;;11.77;52.24
81704;BME280;71117;52.352;4.808;2024-03-23T11:19:37;100935.50;;;13.24;48.50
81704;BME280;71117;52.352;4.808;2024-03-23T11:22:04;100948.38;;;11.48;52.38
81704;BME280;71117;52.352;4.808;2024-03-23T11:24:30;100943.94;;;10.94;54.12
81704;BME280;71117;52.352;4.808;2024-03-23T11:26:56;100946.84;;;11.07;52.74
81704;BME280;71117;52.352;4.808;2024-03-23T11:29:25;100950.66;;;9.89;57.42
81704;BME280;71117;52.352;4.808;2024-03-23T11:31:53;100941.03;;;9.53;58.80
81704;BME280;71117;52.352;4.808;2024-03-23T11:34:19;100951.09;;;9.32;60.38
81704;BME280;71117;52.352;4.808;2024-03-23T11:36:46;100949.41;;;10.12;58.45
81704;BME280;71117;52.352;4.808;2024-03-23T11:39:15;100950.84;;;9.22;57.64
81704;BME280;71117;52.352;4.808;2024-03-23T11:42:08;100944.97;;;9.33;60.97
81704;BME280;71117;52.352;4.808;2024-03-23T11:44:33;100947.50;;;9.30;63.57
81704;BME280;71117;52.352;4.808;2024-03-23T11:47:08;100934.88;;;9.92;63.20
81704;BME280;71117;52.352;4.808;2024-03-23T11:49:35;100927.50;;;10.16;65.20
81704;BME280;71117;52.352;4.808;2024-03-23T11:52:05;100942.63;;;9.45;64.23
81704;BME280;71117;52.352;4.808;2024-03-23T11:54:31;100941.63;;;9.04;65.25
81704;BME280;71117;52.352;4.808;2024-03-23T11:57:08;100955.59;;;8.08;69.45
81704;BME280;71117;52.352;4.808;2024-03-23T11:59:43;100954.53;;;7.44;75.71
81704;BME280;71117;52.352;4.808;2024-03-23T12:02:11;100956.88;;;6.57;80.43
81704;BME280;71117;52.352;4.808;2024-03-23T12:04:37;100970.91;;;6.11;81.55
81704;BME280;71117;52.352;4.808;2024-03-23T12:07:19;100974.78;;;5.53;84.17
81704;BME280;71117;52.352;4.808;2024-03-23T12:09:45;100945.25;;;5.35;85.14
81704;BME280;71117;52.352;4.808;2024-03-23T12:12:15;100946.41;;;5.43;88.42
81704;BME280;71117;52.352;4.808;2024-03-23T12:14:42;100944.38;;;5.57;88.41
81704;BME280;71117;52.352;4.808;2024-03-23T12:17:14;100936.19;;;5.72;88.59
81704;BME280;71117;52.352;4.808;2024-03-23T12:19:41;100932.34;;;5.84;88.87
81704;BME280;71117;52.352;4.808;2024-03-23T12:22:10;100930.38;;;6.01;88.35
81704;BME280;71117;52.352;4.808;2024-03-23T12:24:35;100921.22;;;6.38;85.80
81704;BME280;71117;52.352;4.808;2024-03-23T12:27:02;100931.75;;;6.63;86.46
81704;BME280;71117;52.352;4.808;2024-03-23T12:29:29;100919.75;;;6.72;84.87
81704;BME280;71117;52.352;4.808;2024-03-23T12:31:54;100912.63;;;6.93;84.02
81704;BME280;71117;52.352;4.808;2024-03-23T12:34:21;100903.00;;;9.04;77.01
81704;BME280;71117;52.352;4.808;2024-03-23T12:36:46;100890.00;;;11.34;65.04
81704;BME280;71117;52.352;4.808;2024-03-23T12:39:11;100882.31;;;13.06;61.19
81704;BME280;71117;52.352;4.808;2024-03-23T12:41:37;100887.41;;;11.38;61.47
81704;BME280;71117;52.352;4.808;2024-03-23T12:44:02;100889.13;;;9.49;65.23
81704;BME280;71117;52.352;4.808;2024-03-23T12:46:27;100913.31;;;8.62;70.53
81704;BME280;71117;52.352;4.808;2024-03-23T12:48:55;100917.34;;;8.19;71.04
81704;BME280;71117;52.352;4.808;2024-03-23T12:51:21;100942.16;;;7.13;75.79
81704;BME280;71117;52.352;4.808;2024-03-23T12:53:46;100934.47;;;6.92;80.50
81704;BME280;71117;52.352;4.808;2024-03-23T12:56:12;100931.78;;;7.18;79.76
81704;BME280;71117;52.352;4.808;2024-03-23T12:58:37;100926.06;;;7.02;79.01
81704;BME280;71117;52.352;4.808;2024-03-23T13:01:02;100922.19;;;6.66;77.86
81704;BME280;71117;52.352;4.808;2024-03-23T13:03:28;100911.59;;;6.62;80.33
81704;BME280;71117;52.352;4.808;2024-03-23T13:05:54;100916.94;;;6.66;77.43
81704;BME280;71117;52.352;4.808;2024-03-23T13:08:19;100901.44;;;6.99;78.05
81704;BME280;71117;52.352;4.808;2024-03-23T13:10:44;100912.13;;;7.05;78.18
81704;BME280;71117;52.352;4.808;2024-03-23T13:13:10;100899.81;;;7.02;77.62
81704;BME280;71117;52.352;4.808;2024-03-23T13:15:35;100894.16;;;9.38;71.83
81704;BME280;71117;52.352;4.808;2024-03-23T13:18:00;100877.59;;;10.74;68.75
81704;BME280;71117;52.352;4.808;2024-03-23T13:20:26;100866.09;;;11.88;62.40
81704;BME280;71117;52.352;4.808;2024-03-23T13:22:51;100850.97;;;13.76;57.85
81704;BME280;71117;52.352;4.808;2024-03-23T13:25:17;100850.06;;;13.71;56.48
81704;BME280;71117;52.352;4.808;2024-03-23T13:27:44;100856.56;;;14.54;52.98
81704;BME280;71117;52.352;4.808;2024-03-23T13:30:10;100846.66;;;14.12;51.34
81704;BME280;71117;52.352;4.808;2024-03-23T13:32:35;100866.59;;;12.33;53.38
81704;BME280;71117;52.352;4.808;2024-03-23T13:35:00;100852.13;;;12.87;51.10
81704;BME280;71117;52.352;4.808;2024-03-23T13:37:26;100851.81;;;13.69;51.49
81704;BME280;71117;52.352;4.808;2024-03-23T13:39:51;100855.06;;;12.26;53.76
81704;BME280;71117;52.352;4.808;2024-03-23T13:42:17;100847.06;;;13.20;51.63
81704;BME280;71117;52.352;4.808;2024-03-23T13:44:43;100863.75;;;13.06;50.50
81704;BME280;71117;52.352;4.808;2024-03-23T13:47:08;100853.19;;;13.10;48.86
81704;BME280;71117;52.352;4.808;2024-03-23T13:49:33;100845.38;;;10.96;55.11
81704;BME280;71117;52.352;4.808;2024-03-23T13:51:59;100825.22;;;12.41;54.41